createdAt,value
2023-02-14T00:00:48.259Z,97411.56
2023-02-14T00:03:15.055Z,97413.22
2023-02-14T00:05:41.834Z,97415.19
2023-02-14T00:08:08.546Z,97411.63
2023-02-14T00:10:35.184Z,97414.09
2023-02-14T00:13:01.770Z,97417.66
2023-02-14T00:15:28.318Z,97414.69
2023-02-14T00:17:59.677Z,97419.09
2023-02-14T00:20:28.172Z,97408.41
2023-02-14T00:22:54.958Z,97417.63
2023-02-14T00:25:21.874Z,97401.56
2023-02-14T00:27:48.472Z,97394.53
2023-02-14T00:30:15.305Z,97403.78
2023-02-14T00:32:42.818Z,97403.19
2023-02-14T00:35:10.599Z,97400.97
2023-02-14T00:37:37.403Z,97406.28
2023-02-14T00:40:05.724Z,97396.72
2023-02-14T00:42:32.352Z,97391.09
2023-02-14T00:44:58.992Z,97387.16
2023-02-14T00:47:25.701Z,97389.38
2023-02-14T00:49:52.417Z,97408.75
2023-02-14T00:52:19.350Z,97406.03
2023-02-14T00:54:46.025Z,97403.56
2023-02-14T00:57:12.629Z,97406.34
2023-02-14T00:59:39.303Z,97400.00
2023-02-14T01:02:06.049Z,97398.03
2023-02-14T01:04:32.638Z,97393.00
2023-02-14T01:06:59.182Z,97395.41
2023-02-14T01:09:25.756Z,97399.44
2023-02-14T01:11:52.394Z,97399.03
2023-02-14T01:14:19.096Z,97396.06
2023-02-14T01:16:45.705Z,97399.03
2023-02-14T01:19:12.357Z,97386.00
2023-02-14T01:21:38.924Z,97390.06
2023-02-14T01:24:07.934Z,97386.94
2023-02-14T01:26:35.503Z,97382.66
2023-02-14T01:29:03.880Z,97385.38
2023-02-14T01:31:32.900Z,97387.84
2023-02-14T01:33:59.973Z,97384.88
2023-02-14T01:36:33.053Z,97377.19
2023-02-14T01:39:03.318Z,97380.94
2023-02-14T01:41:32.866Z,97379.28
2023-02-14T01:43:59.484Z,97387.69
2023-02-14T01:46:28.355Z,97382.00
2023-02-14T01:49:01.839Z,97383.00
2023-02-14T01:51:30.236Z,97381.59
2023-02-14T01:53:57.333Z,97380.78
2023-02-14T01:56:34.854Z,97379.38
2023-02-14T01:59:04.862Z,97371.69
2023-02-14T02:01:31.601Z,97373.50
2023-02-14T02:04:06.949Z,97368.72
2023-02-14T02:06:37.891Z,97375.84
2023-02-14T02:09:14.110Z,97369.22
2023-02-14T02:11:42.303Z,97364.19
2023-02-14T02:14:18.582Z,97364.28
2023-02-14T02:16:45.252Z,97360.97
2023-02-14T02:19:20.902Z,97357.19
2023-02-14T02:22:08.958Z,97355.44
2023-02-14T02:24:40.829Z,97361.41
2023-02-14T02:27:08.591Z,97362.72
2023-02-14T02:30:15.756Z,97360.25
2023-02-14T02:33:20.104Z,97354.22
2023-02-14T02:35:54.616Z,97349.13
2023-02-14T02:38:52.178Z,97354.97
2023-02-14T02:41:33.612Z,97352.41
2023-02-14T02:44:30.434Z,97351.84
2023-02-14T02:47:05.905Z,97348.53
2023-02-14T02:50:03.583Z,97346.81
2023-02-14T02:53:07.729Z,97352.41
2023-02-14T02:56:03.796Z,97353.91
2023-02-14T02:58:35.811Z,97349.03
2023-02-14T03:01:07.955Z,97348.22
2023-02-14T03:03:54.615Z,97348.97
2023-02-14T03:06:21.334Z,97346.81
2023-02-14T03:08:47.867Z,97351.75
2023-02-14T03:11:15.274Z,97350.38
2023-02-14T03:14:00.855Z,97354.47
2023-02-14T03:16:31.858Z,97353.56
2023-02-14T03:19:40.414Z,97351.03
2023-02-14T03:22:28.422Z,97347.16
2023-02-14T03:25:04.804Z,97353.56
2023-02-14T03:27:39.447Z,97343.84
2023-02-14T03:30:16.000Z,97338.25
2023-02-14T03:32:48.476Z,97335.38
2023-02-14T03:35:36.566Z,97342.13
2023-02-14T03:38:27.249Z,97337.09
2023-02-14T03:41:12.599Z,97338.09
2023-02-14T03:43:59.269Z,97337.41
2023-02-14T03:46:29.225Z,97336.34
2023-02-14T03:49:00.220Z,97340.22
2023-02-14T03:51:34.265Z,97328.03
2023-02-14T03:54:03.022Z,97331.50
2023-02-14T03:56:45.440Z,97329.03
2023-02-14T03:59:30.184Z,97326.31
2023-02-14T04:02:21.687Z,97337.25
2023-02-14T04:04:51.432Z,97336.94
2023-02-14T04:07:21.184Z,97334.44
2023-02-14T04:09:48.905Z,97334.94
2023-02-14T04:12:19.837Z,97336.59
2023-02-14T04:14:50.572Z,97338.25
2023-02-14T04:17:35.441Z,97332.47
2023-02-14T04:20:02.029Z,97338.13
2023-02-14T04:22:28.574Z,97339.31
2023-02-14T04:24:55.098Z,97336.47
2023-02-14T04:27:21.667Z,97340.00
2023-02-14T04:29:49.795Z,97338.03
2023-02-14T04:32:21.781Z,97347.84
2023-02-14T04:34:48.710Z,97347.75
2023-02-14T04:37:18.280Z,97345.03
2023-02-14T04:39:44.881Z,97333.91
2023-02-14T04:42:12.634Z,97340.91
2023-02-14T04:44:39.284Z,97338.19
2023-02-14T04:47:06.960Z,97343.97
2023-02-14T04:49:33.932Z,97338.03
2023-02-14T04:52:00.559Z,97336.88
2023-02-14T04:54:27.415Z,97342.31
2023-02-14T04:56:54.027Z,97343.38
2023-02-14T04:59:20.841Z,97339.00
2023-02-14T05:01:47.421Z,97334.06
2023-02-14T05:04:14.410Z,97327.16
2023-02-14T05:06:40.995Z,97333.31
2023-02-14T05:09:07.740Z,97326.81
2023-02-14T05:11:34.282Z,97323.13
2023-02-14T05:14:00.809Z,97331.25
2023-02-14T05:16:27.487Z,97328.22
2023-02-14T05:18:54.261Z,97326.81
2023-02-14T05:21:20.836Z,97322.44
2023-02-14T05:23:47.433Z,97330.59
2023-02-14T05:26:14.218Z,97331.31
2023-02-14T05:28:41.145Z,97337.00
2023-02-14T05:31:08.904Z,97336.81
2023-02-14T05:33:35.619Z,97336.28
2023-02-14T05:36:02.814Z,97332.59
2023-02-14T05:38:30.675Z,97341.91
2023-02-14T05:40:57.385Z,97337.16
2023-02-14T05:43:24.093Z,97346.38
2023-02-14T05:45:50.720Z,97345.28
2023-02-14T05:48:17.586Z,97346.38
2023-02-14T05:50:45.563Z,97342.16
2023-02-14T05:53:13.105Z,97339.22
2023-02-14T05:55:39.805Z,97339.13
2023-02-14T05:58:06.887Z,97343.41
2023-02-14T06:00:34.484Z,97344.94
2023-02-14T06:03:01.557Z,97354.03
2023-02-14T06:05:28.323Z,97342.03
2023-02-14T06:07:54.857Z,97332.38
2023-02-14T06:10:24.909Z,97340.75
2023-02-14T06:12:53.408Z,97339.78
2023-02-14T06:15:20.293Z,97341.19
2023-02-14T06:17:54.599Z,97334.69
2023-02-14T06:20:22.100Z,97338.31
2023-02-14T06:22:48.882Z,97339.75
2023-02-14T06:25:15.850Z,97332.88
2023-02-14T06:27:42.760Z,97340.94
2023-02-14T06:30:10.661Z,97335.16
2023-02-14T06:32:37.387Z,97342.00
2023-02-14T06:35:04.283Z,97338.81
2023-02-14T06:37:30.822Z,97344.56
2023-02-14T06:39:57.527Z,97336.31
2023-02-14T06:42:24.162Z,97343.31
2023-02-14T06:44:50.849Z,97340.44
2023-02-14T06:47:17.398Z,97340.34
2023-02-14T06:49:43.958Z,97334.81
2023-02-14T06:52:10.834Z,97335.06
2023-02-14T06:54:37.359Z,97335.84
2023-02-14T06:57:03.995Z,97331.25
2023-02-14T06:59:30.842Z,97335.97
2023-02-14T07:01:57.376Z,97337.88
2023-02-14T07:04:23.978Z,97340.34
2023-02-14T07:06:50.757Z,97336.31
2023-02-14T07:09:18.307Z,97339.63
2023-02-14T07:11:45.820Z,97334.28
2023-02-14T07:14:13.097Z,97338.06
2023-02-14T07:16:39.800Z,97343.34
2023-02-14T07:19:06.414Z,97341.56
2023-02-14T07:21:33.025Z,97340.84
2023-02-14T07:24:00.822Z,97333.28
2023-02-14T07:26:27.438Z,97345.28
2023-02-14T07:28:54.046Z,97334.88
2023-02-14T07:31:22.726Z,97331.66
2023-02-14T07:33:51.319Z,97336.69
2023-02-14T07:36:18.458Z,97347.16
2023-02-14T07:38:45.051Z,97351.88
2023-02-14T07:41:11.644Z,97339.06
2023-02-14T07:43:39.733Z,97345.66
2023-02-14T07:46:06.789Z,97335.94
2023-02-14T07:48:34.440Z,97340.72
2023-02-14T07:51:01.828Z,97339.06
2023-02-14T07:53:28.595Z,97344.59
2023-02-14T07:55:55.455Z,97338.75
2023-02-14T07:58:22.072Z,97336.53
2023-02-14T08:00:48.995Z,97332.88
2023-02-14T08:03:16.130Z,97328.09
2023-02-14T08:05:43.174Z,97328.00
2023-02-14T08:08:09.837Z,97326.75
2023-02-14T08:10:36.450Z,97323.19
2023-02-14T08:13:03.719Z,97325.34
2023-02-14T08:15:53.843Z,97324.66
2023-02-14T08:18:25.458Z,97322.34
2023-02-14T08:20:53.279Z,97318.03
2023-02-14T08:23:21.058Z,97326.25
2023-02-14T08:25:52.688Z,97330.00
2023-02-14T08:28:21.916Z,97327.47
2023-02-14T08:30:48.601Z,97331.31
2023-02-14T08:33:15.213Z,97332.97
2023-02-14T08:35:41.984Z,97343.03
2023-02-14T08:38:08.606Z,97336.38
2023-02-14T08:40:37.125Z,97326.69
2023-02-14T08:43:05.659Z,97336.97
2023-02-14T08:45:32.818Z,97339.53
2023-02-14T08:48:04.493Z,97334.59
2023-02-14T08:50:31.174Z,97336.25
2023-02-14T08:52:57.956Z,97346.63
2023-02-14T08:55:24.677Z,97337.63
2023-02-14T08:57:51.272Z,97338.63
2023-02-14T09:00:18.214Z,97337.03
2023-02-14T09:02:44.818Z,97334.84
2023-02-14T09:05:11.481Z,97340.25
2023-02-14T09:07:38.048Z,97338.00
2023-02-14T09:10:05.165Z,97341.34
2023-02-14T09:12:31.727Z,97337.25
2023-02-14T09:14:58.373Z,97342.34
2023-02-14T09:17:25.007Z,97339.78
2023-02-14T09:19:51.644Z,97342.09
2023-02-14T09:22:20.253Z,97334.53
2023-02-14T09:24:46.935Z,97338.53
2023-02-14T09:27:13.539Z,97340.75
2023-02-14T09:29:40.149Z,97342.38
2023-02-14T09:32:06.885Z,97332.75
2023-02-14T09:34:34.987Z,97338.03
2023-02-14T09:37:01.605Z,97335.31
2023-02-14T09:39:28.182Z,97343.03
2023-02-14T09:41:54.710Z,97334.91
2023-02-14T09:44:44.431Z,97340.97
2023-02-14T09:47:31.489Z,97336.34
2023-02-14T09:49:58.840Z,97342.13
2023-02-14T09:52:29.214Z,97339.94
2023-02-14T09:55:01.156Z,97341.69
2023-02-14T09:57:43.396Z,97341.63
2023-02-14T10:00:21.800Z,97335.19
2023-02-14T10:03:12.616Z,97342.38
2023-02-14T10:05:58.145Z,97342.16
2023-02-14T10:08:56.048Z,97349.28
2023-02-14T10:11:24.888Z,97342.91
2023-02-14T10:14:05.307Z,97339.44
2023-02-14T10:16:38.716Z,97334.34
2023-02-14T10:19:19.123Z,97331.69
2023-02-14T10:21:54.334Z,97334.22
2023-02-14T10:24:56.161Z,97336.09
2023-02-14T10:27:42.528Z,97333.22
2023-02-14T10:30:23.767Z,97331.44
2023-02-14T10:33:01.942Z,97336.66
2023-02-14T10:35:28.448Z,97338.31
2023-02-14T10:38:17.469Z,97329.84
2023-02-14T10:41:21.345Z,97327.13
2023-02-14T10:44:01.776Z,97329.03
2023-02-14T10:46:57.790Z,97334.78
2023-02-14T10:49:30.268Z,97333.97
2023-02-14T10:52:32.204Z,97320.03
2023-02-14T10:55:05.604Z,97326.06
2023-02-14T10:57:37.022Z,97329.06
2023-02-14T11:00:16.734Z,97326.88
2023-02-14T11:02:46.941Z,97324.16
2023-02-14T11:05:31.176Z,97320.59
2023-02-14T11:08:01.956Z,97315.38
2023-02-14T11:10:33.065Z,97309.38
2023-02-14T11:12:59.826Z,97308.81
2023-02-14T11:15:31.505Z,97305.78
2023-02-14T11:18:24.975Z,97293.16
2023-02-14T11:21:24.379Z,97287.09
2023-02-14T11:23:51.576Z,97285.69
2023-02-14T11:26:24.757Z,97283.72
2023-02-14T11:28:56.811Z,97282.91
2023-02-14T11:31:42.837Z,97277.47
2023-02-14T11:34:36.599Z,97274.69
2023-02-14T11:37:16.165Z,97269.47
2023-02-14T11:39:43.035Z,97273.34
2023-02-14T11:42:12.981Z,97263.97
2023-02-14T11:44:55.901Z,97276.75
2023-02-14T11:47:29.411Z,97258.94
2023-02-14T11:50:23.696Z,97254.78
2023-02-14T11:52:56.426Z,97257.16
2023-02-14T11:55:34.029Z,97251.09
2023-02-14T11:58:05.391Z,97246.72
2023-02-14T12:00:33.508Z,97246.41
2023-02-14T12:03:05.019Z,97243.31
2023-02-14T12:05:48.667Z,97231.97
2023-02-14T12:08:15.904Z,97230.78
2023-02-14T12:10:42.553Z,97226.47
2023-02-14T12:13:09.053Z,97228.28
2023-02-14T12:15:42.727Z,97219.25
2023-02-14T12:18:09.297Z,97210.59
2023-02-14T12:20:42.651Z,97205.06
2023-02-14T12:23:24.113Z,97205.91
2023-02-14T12:25:56.569Z,97208.25
2023-02-14T12:28:31.521Z,97205.78
2023-02-14T12:30:58.824Z,97201.94
2023-02-14T12:33:26.619Z,97189.53
2023-02-14T12:36:05.340Z,97187.72
2023-02-14T12:38:57.814Z,97194.38
2023-02-14T12:41:36.810Z,97185.22
2023-02-14T12:44:12.483Z,97194.44
2023-02-14T12:47:05.336Z,97191.53
2023-02-14T12:49:40.682Z,97177.00
2023-02-14T12:52:16.278Z,97182.84
2023-02-14T12:54:48.410Z,97172.94
2023-02-14T12:57:24.653Z,97167.44
2023-02-14T13:00:03.007Z,97159.78
2023-02-14T13:02:51.033Z,97159.31
2023-02-14T13:05:48.724Z,97144.13
2023-02-14T13:08:18.194Z,97147.91
2023-02-14T13:10:54.668Z,97143.63
2023-02-14T13:13:40.187Z,97136.59
2023-02-14T13:16:22.118Z,97131.72
2023-02-14T13:18:54.953Z,97135.66
2023-02-14T13:21:33.647Z,97125.13
2023-02-14T13:24:24.343Z,97129.34
2023-02-14T13:26:59.114Z,97124.69
2023-02-14T13:29:44.531Z,97121.84
2023-02-14T13:32:14.281Z,97104.81
2023-02-14T13:34:46.827Z,97115.88
2023-02-14T13:37:22.836Z,97112.50
2023-02-14T13:39:59.389Z,97108.59
2023-02-14T13:42:49.724Z,97113.53
2023-02-14T13:45:40.777Z,97106.69
2023-02-14T13:48:13.136Z,97113.66
2023-02-14T13:50:50.710Z,97122.84
2023-02-14T13:53:41.373Z,97107.28
2023-02-14T13:56:16.864Z,97106.88
2023-02-14T13:59:24.476Z,97107.88
2023-02-14T14:01:51.456Z,97105.66
2023-02-14T14:04:30.494Z,97101.66
2023-02-14T14:07:02.956Z,97100.78
2023-02-14T14:09:41.753Z,97096.72
2023-02-14T14:12:26.241Z,97104.06
2023-02-14T14:15:04.943Z,97098.63
2023-02-14T14:17:36.473Z,97100.19
2023-02-14T14:20:24.665Z,97092.09
2023-02-14T14:22:55.169Z,97093.16
2023-02-14T14:44:17.437Z,97084.38
2023-02-14T14:46:45.123Z,97083.78
2023-02-14T14:49:12.743Z,97087.25
2023-02-14T14:51:40.044Z,97078.78
2023-02-14T14:54:12.341Z,97084.50
2023-02-14T14:56:50.965Z,97079.25
2023-02-14T14:59:27.636Z,97081.50
2023-02-14T15:01:54.614Z,97076.22
2023-02-14T15:04:29.316Z,97072.91
2023-02-14T15:06:57.730Z,97069.66
2023-02-14T15:09:31.560Z,97071.91
2023-02-14T15:12:19.781Z,97074.91
2023-02-14T15:14:54.423Z,97073.56
2023-02-14T15:17:32.797Z,97075.22
2023-02-14T15:20:04.055Z,97069.19
2023-02-14T15:22:41.428Z,97069.59
2023-02-14T15:25:10.728Z,97069.91
2023-02-14T15:27:41.321Z,97068.28
2023-02-14T15:30:23.524Z,97070.13
2023-02-14T15:32:51.340Z,97068.66
2023-02-14T15:35:24.171Z,97075.34
2023-02-14T15:37:52.019Z,97078.63
2023-02-14T15:40:24.169Z,97070.97
2023-02-14T15:42:56.432Z,97072.66
2023-02-14T15:45:27.623Z,97079.00
2023-02-14T15:47:59.800Z,97076.13
2023-02-14T15:50:31.313Z,97078.28
2023-02-14T15:53:08.100Z,97079.38
2023-02-14T15:55:36.176Z,97076.16
2023-02-14T15:58:08.606Z,97069.31
2023-02-14T16:00:35.629Z,97072.63
2023-02-14T16:03:10.761Z,97070.75
2023-02-14T16:05:37.500Z,97078.69
2023-02-14T16:08:05.349Z,97069.66
2023-02-14T16:10:34.855Z,97071.38
2023-02-14T16:13:06.607Z,97066.75
2023-02-14T16:15:38.741Z,97062.69
2023-02-14T16:18:32.675Z,97065.50
2023-02-14T16:21:11.579Z,97062.72
2023-02-14T16:23:38.183Z,97052.91
2023-02-14T16:26:08.563Z,97058.75
2023-02-14T16:28:36.908Z,97055.50
2023-02-14T16:31:06.203Z,97059.84
2023-02-14T16:33:35.577Z,97062.41
2023-02-14T16:36:14.236Z,97072.03
2023-02-14T16:38:44.992Z,97054.81
2023-02-14T16:41:20.388Z,97067.16
2023-02-14T16:43:48.207Z,97068.03
2023-02-14T16:46:16.752Z,97065.31
2023-02-14T16:48:43.606Z,97071.34
2023-02-14T16:51:14.005Z,97076.84
2023-02-14T16:53:42.683Z,97067.56
2023-02-14T16:56:17.026Z,97069.78
2023-02-14T16:58:43.950Z,97069.22
2023-02-14T17:01:10.479Z,97065.69
2023-02-14T17:03:36.979Z,97076.91
2023-02-14T17:06:03.599Z,97076.88
2023-02-14T17:08:31.107Z,97076.88
2023-02-14T17:10:58.567Z,97075.81
2023-02-14T17:13:27.653Z,97083.19
2023-02-14T17:15:55.041Z,97086.47
2023-02-14T17:18:23.350Z,97081.28
2023-02-14T17:20:49.917Z,97094.63
2023-02-14T17:23:16.468Z,97086.94
2023-02-14T17:25:43.191Z,97090.69
2023-02-14T17:28:10.785Z,97089.84
2023-02-14T17:30:37.219Z,97095.81
2023-02-14T17:33:04.821Z,97078.28
2023-02-14T17:35:33.276Z,97085.91
2023-02-14T17:37:59.735Z,97089.69
2023-02-14T17:40:28.227Z,97091.59
2023-02-14T17:42:54.704Z,97091.06
2023-02-14T17:45:21.120Z,97089.78
2023-02-14T17:47:47.628Z,97092.25
2023-02-14T17:50:15.680Z,97103.47
2023-02-14T17:52:42.581Z,97095.81
2023-02-14T17:55:09.361Z,97097.97
2023-02-14T17:57:36.895Z,97100.16
2023-02-14T18:00:05.748Z,97101.25
2023-02-14T18:02:32.410Z,97093.06
2023-02-14T18:04:59.240Z,97093.31
2023-02-14T18:07:25.764Z,97099.03
2023-02-14T18:09:52.299Z,97094.09
2023-02-14T18:12:18.841Z,97095.22
2023-02-14T18:14:45.332Z,97085.97
2023-02-14T18:17:12.863Z,97086.81
2023-02-14T18:19:39.464Z,97077.50
2023-02-14T18:22:05.926Z,97078.88
2023-02-14T18:24:32.547Z,97077.25
2023-02-14T18:26:59.182Z,97078.63
2023-02-14T18:29:26.079Z,97073.72
2023-02-14T18:31:53.047Z,97066.88
2023-02-14T18:34:19.618Z,97071.00
2023-02-14T18:36:46.426Z,97070.19
2023-02-14T18:39:12.963Z,97074.81
2023-02-14T18:41:39.747Z,97069.66
2023-02-14T18:44:07.109Z,97069.09
2023-02-14T18:46:35.622Z,97059.78
2023-02-14T18:49:05.886Z,97064.97
2023-02-14T18:51:39.305Z,97061.97
2023-02-14T18:54:06.897Z,97060.91
2023-02-14T18:56:36.739Z,97054.34
2023-02-14T18:59:06.666Z,97050.25
2023-02-14T19:01:39.470Z,97057.94
2023-02-14T19:04:08.617Z,97057.13
2023-02-14T19:06:35.860Z,97057.66
2023-02-14T19:09:03.281Z,97051.09
2023-02-14T19:11:31.763Z,97044.84
2023-02-14T19:14:00.481Z,97047.31
2023-02-14T19:16:33.349Z,97031.47
2023-02-14T19:19:02.904Z,97041.84
2023-02-14T19:21:33.774Z,97038.56
2023-02-14T19:24:01.043Z,97044.03
2023-02-14T19:26:32.688Z,97034.72
2023-02-14T19:29:02.203Z,97039.09
2023-02-14T19:31:29.601Z,97036.91
2023-02-14T19:33:56.528Z,97030.63
2023-02-14T19:36:23.931Z,97024.63
2023-02-14T19:38:52.623Z,97019.69
2023-02-14T19:41:23.258Z,97024.88
2023-02-14T19:43:53.624Z,97019.69
2023-02-14T19:46:21.393Z,97023.22
2023-02-14T19:48:48.835Z,97028.13
2023-02-14T19:51:36.498Z,97022.97
2023-02-14T19:54:05.768Z,97015.56
2023-02-14T19:56:36.535Z,97018.56
2023-02-14T19:59:09.092Z,97016.94
2023-02-14T20:01:42.120Z,97009.03
2023-02-14T20:04:14.555Z,97006.59
2023-02-14T20:06:42.344Z,97010.97
2023-02-14T20:09:09.626Z,97008.25
2023-02-14T20:11:50.141Z,97007.97
2023-02-14T20:14:28.611Z,97004.97
2023-02-14T20:16:58.114Z,97010.16
2023-02-14T20:19:27.814Z,97007.16
2023-02-14T20:21:54.992Z,97005.22
2023-02-14T20:24:24.090Z,97003.31
2023-02-14T20:26:51.677Z,97003.03
2023-02-14T20:29:19.222Z,96994.03
2023-02-14T20:31:48.954Z,97001.38
2023-02-14T20:34:16.376Z,97001.66
2023-02-14T20:36:43.700Z,96992.91
2023-02-14T20:39:12.587Z,96993.72
2023-02-14T20:41:39.203Z,96987.97
2023-02-14T20:44:09.771Z,96984.41
2023-02-14T20:46:36.340Z,96985.19
2023-02-14T20:49:03.327Z,96995.28
2023-02-14T20:51:29.939Z,96981.88
2023-02-14T20:53:56.816Z,96990.34
2023-02-14T20:56:23.804Z,96989.78
2023-02-14T20:58:50.626Z,96981.59
2023-02-14T21:01:20.572Z,96990.31
2023-02-14T21:03:50.761Z,96990.56
2023-02-14T21:06:19.318Z,96986.44
2023-02-14T21:08:46.239Z,96984.84
2023-02-14T21:11:15.013Z,96981.56
2023-02-14T21:13:41.581Z,96989.19
2023-02-14T21:16:10.975Z,96990.53
2023-02-14T21:18:38.101Z,96972.53
2023-02-14T21:21:32.513Z,96973.59
2023-02-14T21:24:00.788Z,96973.59
2023-02-14T21:26:27.930Z,96974.97
2023-02-14T21:28:54.468Z,96970.59
2023-02-14T21:31:21.818Z,96964.88
2023-02-14T21:33:53.742Z,96965.41
2023-02-14T21:36:21.962Z,96961.31
2023-02-14T21:38:48.936Z,96959.66
2023-02-14T21:41:18.504Z,96953.69
2023-02-14T21:43:46.762Z,96952.28
2023-02-14T21:46:18.072Z,96953.63
2023-02-14T21:49:03.807Z,96957.44
2023-02-14T21:51:31.547Z,96957.97
2023-02-14T21:54:01.442Z,96951.66
2023-02-14T21:56:28.384Z,96945.34
2023-02-14T21:58:55.626Z,96948.59
2023-02-14T22:01:28.486Z,96951.38
2023-02-14T22:03:56.508Z,96943.09
2023-02-14T22:06:23.935Z,96933.78
2023-02-14T22:08:55.832Z,96938.44
2023-02-14T22:11:23.535Z,96940.34
2023-02-14T22:13:50.216Z,96941.16
2023-02-14T22:16:19.091Z,96944.41
2023-02-14T22:18:47.829Z,96943.03
2023-02-14T22:21:17.007Z,96940.03
2023-02-14T22:23:44.219Z,96941.41
2023-02-14T22:26:13.768Z,96940.31
2023-02-14T22:28:41.670Z,96944.66
2023-02-14T22:31:08.418Z,96943.03
2023-02-14T22:33:37.995Z,96937.03
2023-02-14T22:36:05.394Z,96940.28
2023-02-14T22:38:32.342Z,96951.72
2023-02-14T22:41:08.733Z,96951.91
2023-02-14T22:43:36.586Z,96951.88
2023-02-14T22:46:05.391Z,96947.22
2023-02-14T22:48:34.010Z,96954.59
2023-02-14T22:51:29.681Z,96945.06
2023-02-14T22:53:59.090Z,96946.13
2023-02-14T22:56:28.632Z,96956.44
2023-02-14T22:59:00.949Z,96955.31
2023-02-14T23:01:28.561Z,96952.03
2023-02-14T23:03:57.007Z,96952.44
2023-02-14T23:06:25.735Z,96947.25
2023-02-14T23:08:52.463Z,96947.53
2023-02-14T23:11:27.599Z,96946.66
2023-02-14T23:14:13.801Z,96952.91
2023-02-14T23:16:59.294Z,96958.63
2023-02-14T23:19:47.296Z,96952.84
2023-02-14T23:22:21.484Z,96948.41
2023-02-14T23:24:50.143Z,96944.63
2023-02-14T23:27:19.662Z,96944.38
2023-02-14T23:29:46.196Z,96945.13
2023-02-14T23:32:13.282Z,96946.78
2023-02-14T23:34:41.733Z,96956.03
2023-02-14T23:37:09.284Z,96940.56
2023-02-14T23:39:36.745Z,96939.19
2023-02-14T23:42:11.498Z,96936.50
2023-02-14T23:44:38.135Z,96934.34
2023-02-14T23:47:06.285Z,96933.28
2023-02-14T23:49:34.756Z,96931.88
2023-02-14T23:52:02.004Z,96938.97
2023-02-14T23:54:28.590Z,96940.31
2023-02-14T23:56:55.432Z,96933.22
2023-02-14T23:59:22.209Z,96930.50
